Time;durP1;ratioP1;P1;durP2;ratioP2;P2;SDS_P1;SDS_P2;PMS_P1;PMS_P2;Temp;Humidity;BMP_temperature;BMP_pressure;BME280_temperature;BME280_humidity;BME280_pressure;Samples;Min_cycle;Max_cycle;Signal;HPM_P1;HPM_P2
2023/09/17 00:01:13;;;;;;;12.15;4.97;;;;;;;;;;5015055;28;20081;-64
2023/09/17 00:03:40;;;;;;;11.60;4.95;;;;;;;;;;5018866;28;20061;-66
2023/09/17 00:06:08;;;;;;;11.82;5.10;;;;;;;;;;5013081;28;20061;-64
2023/09/17 00:08:35;;;;;;;15.23;4.70;;;;;;;;;;5017552;28;20057;-63
2023/09/17 00:11:02;;;;;;;9.85;5.07;;;;;;;;;;5028559;28;20061;-66
2023/09/17 00:13:30;;;;;;;10.07;4.80;;;;;;;;;;5019569;28;20093;-62
2023/09/17 00:15:58;;;;;;;;;;;;;;;;;;5014648;28;20049;-63
2023/09/17 00:18:24;;;;;;;10.73;4.85;;;;;;;;;;5033351;28;20039;-66
2023/09/17 00:20:51;;;;;;;11.70;5.10;;;;;;;;;;5016914;28;20061;-62
2023/09/17 00:23:18;;;;;;;10.32;5.65;;;;;;;;;;5014213;28;20116;-66
2023/09/17 00:25:44;;;;;;;16.52;4.55;;;;;;;;;;5014410;28;20160;-67
2023/09/17 00:28:11;;;;;;;12.63;4.88;;;;;;;;;;5016461;28;20076;-61
2023/09/17 00:30:40;;;;;;;10.02;4.35;;;;;;;;;;5016954;28;20049;-64
2023/09/17 00:33:06;;;;;;;8.23;4.22;;;;;;;;;;5011880;28;20069;-64
2023/09/17 00:35:33;;;;;;;9.73;4.60;;;;;;;;;;5005102;28;20353;-66
2023/09/17 00:38:00;;;;;;;12.95;5.95;;;;;;;;;;4998358;28;20161;-61
2023/09/17 00:40:29;;;;;;;23.98;9.45;;;;;;;;;;5002811;28;20129;-63
2023/09/17 00:42:56;;;;;;;10.57;5.75;;;;;;;;;;4993268;28;20202;-64
2023/09/17 00:45:23;;;;;;;8.93;4.72;;;;;;;;;;4983805;28;20049;-63
2023/09/17 00:47:52;;;;;;;8.30;4.20;;;;;;;;;;4997054;28;20196;-62
2023/09/17 00:50:18;;;;;;;11.30;4.00;;;;;;;;;;4997090;28;20237;-61
2023/09/17 00:52:46;;;;;;;10.32;4.90;;;;;;;;;;4997324;28;20081;-65
2023/09/17 00:55:12;;;;;;;10.13;4.75;;;;;;;;;;4989838;28;20179;-65
2023/09/17 00:57:40;;;;;;;7.50;4.18;;;;;;;;;;5007530;28;20141;-62
2023/09/17 01:00:09;;;;;;;11.15;4.65;;;;;;;;;;5003266;28;20084;-65
2023/09/17 01:02:36;;;;;;;14.65;4.28;;;;;;;;;;5000932;28;20072;-64
2023/09/17 01:05:06;;;;;;;9.70;4.50;;;;;;;;;;4982213;28;20089;-65
2023/09/17 01:07:33;;;;;;;9.05;4.25;;;;;;;;;;4997558;28;20058;-67
2023/09/17 01:10:00;;;;;;;10.05;4.32;;;;;;;;;;4999986;28;20085;-66
2023/09/17 01:12:28;;;;;;;12.80;5.32;;;;;;;;;;4999477;28;20081;-63
2023/09/17 01:14:55;;;;;;;9.85;5.35;;;;;;;;;;5000090;28;20112;-65
2023/09/17 01:17:27;;;;;;;9.30;4.32;;;;;;;;;;5014347;28;20056;-62
2023/09/17 01:19:54;;;;;;;8.70;3.90;;;;;;;;;;5020952;28;20060;-64
2023/09/17 01:22:29;;;;;;;8.90;4.05;;;;;;;;;;5021575;28;20064;-65
2023/09/17 01:25:05;;;;;;;7.35;4.15;;;;;;;;;;5019273;28;20053;-61
2023/09/17 01:27:35;;;;;;;8.07;4.20;;;;;;;;;;5017486;28;20053;-64
2023/09/17 01:30:04;;;;;;;9.82;3.83;;;;;;;;;;5022345;28;20054;-61
2023/09/17 01:32:31;;;;;;;10.13;4.40;;;;;;;;;;5018561;28;20061;-65
2023/09/17 01:34:58;;;;;;;8.88;4.05;;;;;;;;;;5015004;28;20065;-68
2023/09/17 01:37:29;;;;;;;8.52;4.13;;;;;;;;;;4990499;28;20057;-64
2023/09/17 01:39:59;;;;;;;12.00;4.72;;;;;;;;;;5000207;28;20128;-64
2023/09/17 01:42:27;;;;;;;9.90;4.18;;;;;;;;;;4996045;28;20150;-67
2023/09/17 01:44:58;;;;;;;8.40;4.25;;;;;;;;;;4972861;28;20132;-63
2023/09/17 01:47:26;;;;;;;9.88;4.65;;;;;;;;;;4998964;28;20169;-69
2023/09/17 01:49:55;;;;;;;8.07;4.32;;;;;;;;;;5020315;28;20046;-63
2023/09/17 01:52:25;;;;;;;11.15;4.82;;;;;;;;;;5016419;28;20058;-62
2023/09/17 01:54:52;;;;;;;12.82;5.68;;;;;;;;;;4996047;28;20058;-61
2023/09/17 01:57:18;;;;;;;10.35;5.00;;;;;;;;;;4991207;28;20073;-62
2023/09/17 01:59:45;;;;;;;10.75;4.95;;;;;;;;;;5001714;28;20119;-63
2023/09/17 02:02:13;;;;;;;9.88;4.95;;;;;;;;;;4997636;28;20077;-64
2023/09/17 02:04:40;;;;;;;10.68;4.93;;;;;;;;;;5019390;28;20061;-65
2023/09/17 02:07:07;;;;;;;9.52;4.80;;;;;;;;;;5014574;28;20069;-64
2023/09/17 02:09:33;;;;;;;13.10;4.90;;;;;;;;;;4995826;28;20061;-65
2023/09/17 02:12:00;;;;;;;9.98;4.80;;;;;;;;;;5019454;28;20204;-62
2023/09/17 02:14:27;;;;;;;10.60;4.55;;;;;;;;;;5019218;28;20053;-66
2023/09/17 02:16:54;;;;;;;12.27;4.45;;;;;;;;;;5018368;28;20088;-61
2023/09/17 02:19:22;;;;;;;8.73;4.75;;;;;;;;;;5040327;28;20084;-63
2023/09/17 02:21:50;;;;;;;11.27;5.07;;;;;;;;;;5014882;28;20099;-68
2023/09/17 02:24:16;;;;;;;9.03;4.63;;;;;;;;;;4979950;28;20160;-65
2023/09/17 02:26:44;;;;;;;9.85;4.35;;;;;;;;;;4979937;28;20097;-66
2023/09/17 02:29:11;;;;;;;9.80;5.15;;;;;;;;;;4982061;28;20081;-64
2023/09/17 02:36:49;;;;;;;10.15;4.43;;;;;;;;;;5658597;23;20066;-66
2023/09/17 02:39:16;;;;;;;12.15;5.40;;;;;;;;;;4953404;28;20066;-63
2023/09/17 02:41:42;;;;;;;10.70;4.88;;;;;;;;;;4886900;29;20056;-66
2023/09/17 02:44:09;;;;;;;11.90;5.22;;;;;;;;;;4914050;28;20152;-63
2023/09/17 02:46:35;;;;;;;14.20;4.72;;;;;;;;;;4920939;28;20064;-63
2023/09/17 02:49:02;;;;;;;10.63;4.78;;;;;;;;;;4921341;29;20047;-64
2023/09/17 02:51:32;;;;;;;12.93;4.90;;;;;;;;;;4898863;28;20163;-65
2023/09/17 02:54:00;;;;;;;11.13;4.68;;;;;;;;;;4918310;29;20055;-67
2023/09/17 02:56:27;;;;;;;12.70;4.75;;;;;;;;;;4913721;29;20075;-66
2023/09/17 02:58:53;;;;;;;12.75;5.07;;;;;;;;;;4916926;29;20116;-63
2023/09/17 03:01:20;;;;;;;8.32;4.47;;;;;;;;;;4898141;29;20071;-64
2023/09/17 03:03:47;;;;;;;9.90;4.63;;;;;;;;;;4895111;29;20080;-64
2023/09/17 03:06:13;;;;;;;10.32;4.95;;;;;;;;;;4901065;29;20071;-65
2023/09/17 03:08:41;;;;;;;11.27;5.43;;;;;;;;;;4904243;29;20064;-68
2023/09/17 03:11:13;;;;;;;11.77;4.53;;;;;;;;;;4900327;29;20132;-69
2023/09/17 03:13:40;;;;;;;11.68;5.15;;;;;;;;;;4910676;28;20064;-71
2023/09/17 03:16:07;;;;;;;9.45;5.15;;;;;;;;;;4918111;29;20066;-68
2023/09/17 03:18:34;;;;;;;9.32;4.90;;;;;;;;;;4918691;29;20075;-65
2023/09/17 03:21:05;;;;;;;10.38;4.93;;;;;;;;;;4919356;29;20115;-69
2023/09/17 03:23:31;;;;;;;10.75;5.05;;;;;;;;;;4929865;28;20115;-67
2023/09/17 03:26:00;;;;;;;10.77;4.95;;;;;;;;;;4917922;28;20130;-68
2023/09/17 03:28:28;;;;;;;12.45;5.47;;;;;;;;;;4919856;29;20058;-66
2023/09/17 03:30:55;;;;;;;8.60;4.70;;;;;;;;;;4919321;29;20051;-70
2023/09/17 03:33:21;;;;;;;9.77;5.22;;;;;;;;;;4911207;29;20060;-70
2023/09/17 03:35:48;;;;;;;12.10;5.47;;;;;;;;;;4908892;29;20056;-70
2023/09/17 03:38:15;;;;;;;13.57;5.78;;;;;;;;;;4901351;29;20071;-67
2023/09/17 03:40:41;;;;;;;12.02;5.55;;;;;;;;;;4900417;29;20143;-67
2023/09/17 03:43:08;;;;;;;11.90;5.30;;;;;;;;;;4910628;29;20164;-67
2023/09/17 03:45:36;;;;;;;9.77;4.95;;;;;;;;;;4894147;29;20162;-64
2023/09/17 03:48:04;;;;;;;10.80;5.13;;;;;;;;;;4899878;29;20060;-69
2023/09/17 03:50:31;;;;;;;11.27;4.90;;;;;;;;;;4900259;29;20071;-66
2023/09/17 03:53:00;;;;;;;12.63;4.63;;;;;;;;;;4900707;29;20170;-69
2023/09/17 03:55:26;;;;;;;14.32;4.97;;;;;;;;;;4899755;29;20070;-65
2023/09/17 03:57:56;;;;;;;10.95;4.50;;;;;;;;;;4895604;29;20091;-64
2023/09/17 04:00:23;;;;;;;8.18;4.70;;;;;;;;;;4901105;29;20143;-64
2023/09/17 04:02:53;;;;;;;11.45;4.70;;;;;;;;;;4902641;29;20123;-64
2023/09/17 04:05:21;;;;;;;9.88;5.07;;;;;;;;;;4923780;29;20077;-65
2023/09/17 04:07:49;;;;;;;13.23;4.68;;;;;;;;;;4913032;29;20059;-66
2023/09/17 04:10:18;;;;;;;9.55;5.35;;;;;;;;;;4921026;28;20060;-67
2023/09/17 04:12:45;;;;;;;9.98;4.80;;;;;;;;;;4917375;29;20131;-63
2023/09/17 04:15:18;;;;;;;10.77;4.95;;;;;;;;;;4920989;28;20064;-64
2023/09/17 04:17:46;;;;;;;15.07;5.28;;;;;;;;;;4932310;29;20106;-66
2023/09/17 04:20:17;;;;;;;13.30;5.40;;;;;;;;;;4919495;29;20043;-66
2023/09/17 04:22:44;;;;;;;11.27;5.20;;;;;;;;;;4914834;29;20059;-66
2023/09/17 04:25:15;;;;;;;8.88;4.47;;;;;;;;;;4920042;29;20070;-65
2023/09/17 04:27:42;;;;;;;12.85;5.25;;;;;;;;;;4911572;29;20060;-68
2023/09/17 04:30:09;;;;;;;10.00;5.25;;;;;;;;;;4918729;29;20070;-71
2023/09/17 04:32:37;;;;;;;12.70;5.25;;;;;;;;;;4917723;28;20081;-66
2023/09/17 04:35:07;;;;;;;9.15;4.88;;;;;;;;;;4922751;29;20063;-64
2023/09/17 04:37:35;;;;;;;12.32;5.63;;;;;;;;;;4920143;29;20075;-68
2023/09/17 04:40:08;;;;;;;10.52;5.13;;;;;;;;;;4922098;29;20064;-65
2023/09/17 04:42:35;;;;;;;12.82;5.38;;;;;;;;;;4925316;29;20055;-67
2023/09/17 04:45:02;;;;;;;10.77;5.55;;;;;;;;;;4923231;29;20116;-68
2023/09/17 04:47:32;;;;;;;11.95;5.65;;;;;;;;;;4922005;29;20063;-64
2023/09/17 04:49:58;;;;;;;12.77;6.05;;;;;;;;;;4921376;29;20071;-63
2023/09/17 04:52:25;;;;;;;15.32;5.93;;;;;;;;;;4890942;29;20087;-66
2023/09/17 04:54:53;;;;;;;10.90;5.70;;;;;;;;;;4904152;29;20093;-67
2023/09/17 04:57:20;;;;;;;10.90;5.38;;;;;;;;;;4903539;29;20124;-66
2023/09/17 04:59:46;;;;;;;10.93;5.45;;;;;;;;;;4897153;29;20060;-65
2023/09/17 05:02:14;;;;;;;10.77;5.70;;;;;;;;;;4913304;29;20152;-63
2023/09/17 05:04:40;;;;;;;12.23;5.97;;;;;;;;;;4904219;29;20055;-64
2023/09/17 05:07:07;;;;;;;11.65;6.22;;;;;;;;;;4903185;29;20235;-63
2023/09/17 05:09:34;;;;;;;13.93;5.93;;;;;;;;;;4896689;28;20152;-64
2023/09/17 05:12:02;;;;;;;12.68;6.07;;;;;;;;;;4897126;29;20087;-63
2023/09/17 05:14:28;;;;;;;15.20;6.57;;;;;;;;;;4922727;29;20055;-64
2023/09/17 05:16:55;;;;;;;14.50;5.80;;;;;;;;;;4921572;29;20156;-65
2023/09/17 05:19:22;;;;;;;12.00;6.30;;;;;;;;;;4923578;28;20125;-65
2023/09/17 05:21:49;;;;;;;12.35;6.15;;;;;;;;;;4906593;29;20056;-63
2023/09/17 05:24:16;;;;;;;13.07;6.57;;;;;;;;;;4902838;29;20064;-65
2023/09/17 05:26:42;;;;;;;11.82;6.18;;;;;;;;;;4903715;29;20052;-64
2023/09/17 05:29:15;;;;;;;12.95;6.60;;;;;;;;;;4904035;29;20087;-65
2023/09/17 05:31:42;;;;;;;11.82;6.55;;;;;;;;;;4892170;29;20074;-65
2023/09/17 05:34:08;;;;;;;14.05;6.82;;;;;;;;;;4921591;29;20079;-64
2023/09/17 05:36:35;;;;;;;13.10;6.57;;;;;;;;;;4931241;29;20054;-65
2023/09/17 05:39:02;;;;;;;13.85;6.57;;;;;;;;;;4937455;29;20059;-66
2023/09/17 05:41:29;;;;;;;14.88;7.18;;;;;;;;;;4906796;29;20056;-67
2023/09/17 05:43:56;;;;;;;14.18;7.00;;;;;;;;;;4913259;28;21271;-69
2023/09/17 05:46:24;;;;;;;14.13;7.40;;;;;;;;;;4936831;28;20051;-68
2023/09/17 05:48:50;;;;;;;12.13;7.07;;;;;;;;;;4921264;29;20131;-68
2023/09/17 05:51:17;;;;;;;11.57;6.90;;;;;;;;;;4919954;29;20138;-67
2023/09/17 05:53:44;;;;;;;12.88;6.60;;;;;;;;;;4916970;29;20144;-65
2023/09/17 05:56:11;;;;;;;13.07;7.10;;;;;;;;;;4920436;28;20118;-64
2023/09/17 05:58:37;;;;;;;14.43;7.35;;;;;;;;;;4921338;28;20087;-66
2023/09/17 06:01:05;;;;;;;14.55;7.15;;;;;;;;;;4935833;29;20083;-65
2023/09/17 06:03:33;;;;;;;13.27;6.75;;;;;;;;;;4924395;28;20076;-66
2023/09/17 06:06:00;;;;;;;15.02;7.45;;;;;;;;;;4919503;28;20158;-65
2023/09/17 06:08:28;;;;;;;16.83;7.55;;;;;;;;;;4922208;29;20165;-65
2023/09/17 06:10:55;;;;;;;13.63;6.97;;;;;;;;;;4921777;28;20075;-65
2023/09/17 06:13:22;;;;;;;11.98;6.80;;;;;;;;;;4900698;29;20074;-65
2023/09/17 06:15:49;;;;;;;12.85;7.13;;;;;;;;;;4915435;29;20059;-67
2023/09/17 06:18:16;;;;;;;12.75;6.82;;;;;;;;;;4922588;29;20052;-66
2023/09/17 06:20:45;;;;;;;14.90;7.38;;;;;;;;;;4922027;29;20163;-65
2023/09/17 06:23:12;;;;;;;12.18;6.85;;;;;;;;;;4915954;29;20066;-65
2023/09/17 06:25:39;;;;;;;12.65;6.95;;;;;;;;;;4916407;28;20059;-65
2023/09/17 06:28:06;;;;;;;11.85;6.18;;;;;;;;;;4921108;28;20062;-64
2023/09/17 06:30:33;;;;;;;12.38;6.47;;;;;;;;;;4919612;29;20086;-65
2023/09/17 06:33:01;;;;;;;12.60;6.80;;;;;;;;;;4889099;29;20063;-68
2023/09/17 06:35:28;;;;;;;11.98;6.57;;;;;;;;;;4922516;29;20059;-65
2023/09/17 06:37:56;;;;;;;13.07;7.05;;;;;;;;;;4929235;29;20056;-65
2023/09/17 06:40:23;;;;;;;;;;;;;;;;;;4920063;28;20118;-65
2023/09/17 06:42:50;;;;;;;11.95;5.43;;;;;;;;;;4914116;29;19981;-66
2023/09/17 06:45:18;;;;;;;13.38;6.25;;;;;;;;;;4909285;28;20059;-65
2023/09/17 06:47:44;;;;;;;14.03;6.43;;;;;;;;;;4926969;28;20087;-68
2023/09/17 06:50:12;;;;;;;10.82;5.53;;;;;;;;;;4921817;29;20056;-68
2023/09/17 06:52:41;;;;;;;13.15;6.10;;;;;;;;;;4916748;29;20129;-69
2023/09/17 06:55:09;;;;;;;11.63;5.47;;;;;;;;;;4919438;29;20052;-68
2023/09/17 06:57:36;;;;;;;;;;;;;;;;;;4916577;28;20060;-67
2023/09/17 07:00:06;;;;;;;14.43;4.72;;;;;;;;;;4921508;28;19950;-69
2023/09/17 07:02:33;;;;;;;11.02;5.05;;;;;;;;;;4869308;29;20048;-69
2023/09/17 07:05:03;;;;;;;11.45;5.32;;;;;;;;;;4905331;29;20146;-68
2023/09/17 07:07:33;;;;;;;11.20;5.55;;;;;;;;;;4900258;29;20052;-69
2023/09/17 07:10:00;;;;;;;11.73;5.55;;;;;;;;;;4899304;29;20146;-69
2023/09/17 07:12:29;;;;;;;14.65;5.97;;;;;;;;;;4889978;29;20067;-69
2023/09/17 07:14:56;;;;;;;13.93;6.18;;;;;;;;;;4904561;29;20056;-69
2023/09/17 07:17:23;;;;;;;11.65;5.30;;;;;;;;;;4898027;29;20060;-69
2023/09/17 07:19:50;;;;;;;8.90;4.35;;;;;;;;;;4893556;29;20083;-68
2023/09/17 07:22:16;;;;;;;10.32;5.00;;;;;;;;;;4905787;29;20059;-69
2023/09/17 07:24:43;;;;;;;10.38;4.53;;;;;;;;;;4925241;29;20107;-69
2023/09/17 07:27:10;;;;;;;12.68;4.55;;;;;;;;;;4915493;29;20094;-69
2023/09/17 07:29:40;;;;;;;12.80;4.72;;;;;;;;;;4907053;29;20066;-69
2023/09/17 07:32:07;;;;;;;9.10;4.38;;;;;;;;;;4881041;29;20062;-67
2023/09/17 07:34:34;;;;;;;10.82;4.57;;;;;;;;;;4911929;29;20118;-71
2023/09/17 07:37:01;;;;;;;8.75;4.72;;;;;;;;;;4917861;29;20154;-68
2023/09/17 07:39:31;;;;;;;8.07;4.50;;;;;;;;;;4935603;28;20063;-69
2023/09/17 07:41:58;;;;;;;8.82;4.78;;;;;;;;;;4909634;28;20318;-69
2023/09/17 07:44:26;;;;;;;10.48;4.80;;;;;;;;;;4922583;29;20064;-68
2023/09/17 07:46:54;;;;;;;9.75;5.03;;;;;;;;;;4919768;29;20055;-70
2023/09/17 07:49:26;;;;;;;10.45;4.18;;;;;;;;;;4939712;29;20048;-70
2023/09/17 07:51:53;;;;;;;9.27;4.30;;;;;;;;;;4914151;28;20058;-70
2023/09/17 07:54:20;;;;;;;11.43;4.53;;;;;;;;;;4924660;29;20056;-72
2023/09/17 07:56:46;;;;;;;11.27;4.80;;;;;;;;;;4934963;28;20060;-71
2023/09/17 07:59:13;;;;;;;10.15;4.80;;;;;;;;;;4935640;28;20069;-69
2023/09/17 08:01:40;;;;;;;9.18;5.00;;;;;;;;;;4897100;28;20055;-71
2023/09/17 08:04:09;;;;;;;9.38;5.00;;;;;;;;;;4907679;28;20083;-69
2023/09/17 08:06:36;;;;;;;12.07;5.40;;;;;;;;;;4936398;28;20047;-69
2023/09/17 08:09:06;;;;;;;10.57;4.88;;;;;;;;;;4939484;29;20056;-69
2023/09/17 08:11:33;;;;;;;9.98;4.63;;;;;;;;;;4888191;28;20052;-68
2023/09/17 08:13:59;;;;;;;10.48;5.13;;;;;;;;;;4936586;28;20048;-69
2023/09/17 08:16:30;;;;;;;10.23;5.38;;;;;;;;;;4922517;29;20051;-71
2023/09/17 08:18:57;;;;;;;12.48;5.15;;;;;;;;;;4924110;29;20052;-69
2023/09/17 08:21:26;;;;;;;11.15;5.22;;;;;;;;;;4920224;28;20044;-68
2023/09/17 08:23:55;;;;;;;10.13;5.20;;;;;;;;;;4904446;29;20151;-69
2023/09/17 08:26:23;;;;;;;12.25;5.40;;;;;;;;;;4907287;29;20052;-70
2023/09/17 08:28:56;;;;;;;10.23;5.53;;;;;;;;;;4903829;29;20052;-69
2023/09/17 08:31:26;;;;;;;11.05;5.63;;;;;;;;;;4902478;29;20122;-69
2023/09/17 08:33:53;;;;;;;11.55;5.65;;;;;;;;;;4905188;29;20054;-69
2023/09/17 08:36:21;;;;;;;12.18;5.78;;;;;;;;;;4923788;29;20063;-69
2023/09/17 08:38:54;;;;;;;11.68;5.68;;;;;;;;;;4939312;28;20138;-70
2023/09/17 08:41:23;;;;;;;10.35;5.18;;;;;;;;;;4937261;29;20056;-69
2023/09/17 08:43:52;;;;;;;14.32;7.57;;;;;;;;;;4921231;29;20064;-70
2023/09/17 08:46:19;;;;;;;;;;;;;;;;;;4925940;29;20135;-70
2023/09/17 08:48:46;;;;;;;28.80;18.15;;;;;;;;;;4924301;28;19931;-70
2023/09/17 08:51:19;;;;;;;13.38;6.72;;;;;;;;;;4924449;28;20094;-69
2023/09/17 08:53:56;;;;;;;12.43;5.70;;;;;;;;;;4907570;28;20058;-69
2023/09/17 08:56:41;;;;;;;14.63;6.15;;;;;;;;;;4906395;29;20066;-70
2023/09/17 08:59:11;;;;;;;15.05;6.90;;;;;;;;;;4908732;29;20059;-70
2023/09/17 09:01:40;;;;;;;17.30;9.20;;;;;;;;;;4888661;29;20063;-70
2023/09/17 09:04:10;;;;;;;15.60;8.65;;;;;;;;;;4911613;29;20110;-70
2023/09/17 09:06:38;;;;;;;13.00;7.20;;;;;;;;;;4903215;29;20078;-70
2023/09/17 09:09:09;;;;;;;12.43;6.72;;;;;;;;;;4905046;29;20058;-69
2023/09/17 09:11:36;;;;;;;11.07;5.97;;;;;;;;;;4891617;28;20056;-69
2023/09/17 09:14:05;;;;;;;12.27;5.90;;;;;;;;;;4892862;29;20052;-68
2023/09/17 09:16:35;;;;;;;16.73;7.15;;;;;;;;;;4899901;29;20119;-69
2023/09/17 09:19:02;;;;;;;13.60;6.95;;;;;;;;;;4909521;29;20079;-69
2023/09/17 09:21:32;;;;;;;14.93;7.05;;;;;;;;;;4903054;29;20164;-69
2023/09/17 09:23:59;;;;;;;12.27;6.75;;;;;;;;;;4847824;29;20143;-69
2023/09/17 09:26:35;;;;;;;13.80;7.10;;;;;;;;;;4918375;29;20079;-69
2023/09/17 09:29:02;;;;;;;15.90;9.10;;;;;;;;;;4904793;29;20104;-73
2023/09/17 09:31:38;;;;;;;18.48;9.45;;;;;;;;;;4905060;28;20067;-71
2023/09/17 09:34:05;;;;;;;18.70;10.35;;;;;;;;;;4907854;29;20366;-70
2023/09/17 09:36:34;;;;;;;15.98;8.05;;;;;;;;;;4911398;29;20060;-70
2023/09/17 09:39:02;;;;;;;14.90;7.18;;;;;;;;;;4904212;29;20063;-69
2023/09/17 09:41:32;;;;;;;15.05;7.53;;;;;;;;;;4902849;29;20160;-66
2023/09/17 09:44:03;;;;;;;19.17;9.00;;;;;;;;;;4919914;28;21927;-65
2023/09/17 09:46:33;;;;;;;18.23;7.93;;;;;;;;;;4921990;29;20052;-65
2023/09/17 09:49:01;;;;;;;18.40;8.73;;;;;;;;;;4924165;28;20047;-68
2023/09/17 09:51:29;;;;;;;18.92;9.32;;;;;;;;;;4922518;29;20059;-66
2023/09/17 09:53:56;;;;;;;18.20;9.18;;;;;;;;;;4913187;29;20126;-68
2023/09/17 09:56:27;;;;;;;18.40;8.75;;;;;;;;;;4924373;29;20054;-66
2023/09/17 09:58:55;;;;;;;21.20;9.13;;;;;;;;;;4924059;29;20059;-67
2023/09/17 10:01:23;;;;;;;16.58;8.98;;;;;;;;;;4923066;29;20051;-68
2023/09/17 10:03:50;;;;;;;21.58;9.27;;;;;;;;;;4893964;28;20130;-68
2023/09/17 10:06:17;;;;;;;20.95;10.45;;;;;;;;;;4934009;28;20070;-66
2023/09/17 10:08:45;;;;;;;18.60;9.73;;;;;;;;;;4942738;29;20055;-66
2023/09/17 10:11:12;;;;;;;26.33;10.15;;;;;;;;;;4925390;29;20066;-67
2023/09/17 10:13:40;;;;;;;29.00;10.93;;;;;;;;;;4894632;29;20055;-66
2023/09/17 10:16:07;;;;;;;25.90;12.38;;;;;;;;;;4921953;29;20159;-67
2023/09/17 10:18:36;;;;;;;32.28;15.52;;;;;;;;;;4924888;29;20059;-67
2023/09/17 10:21:04;;;;;;;23.35;12.50;;;;;;;;;;4923260;29;20067;-67
2023/09/17 10:23:33;;;;;;;25.60;11.83;;;;;;;;;;4910242;29;20074;-67
2023/09/17 10:26:03;;;;;;;25.50;11.75;;;;;;;;;;4920686;29;20154;-70
2023/09/17 10:28:40;;;;;;;24.73;12.50;;;;;;;;;;4923182;29;20071;-69
2023/09/17 10:31:12;;;;;;;27.33;12.23;;;;;;;;;;4924461;29;20071;-66
2023/09/17 10:33:44;;;;;;;24.55;12.57;;;;;;;;;;4898710;29;20180;-66
2023/09/17 10:36:17;;;;;;;24.77;11.55;;;;;;;;;;4900762;29;20052;-66
2023/09/17 10:38:48;;;;;;;27.88;13.15;;;;;;;;;;4918521;29;20055;-67
2023/09/17 10:41:20;;;;;;;25.98;12.88;;;;;;;;;;4884111;29;20092;-67
2023/09/17 10:43:47;;;;;;;27.52;12.60;;;;;;;;;;4857984;29;20056;-66
2023/09/17 10:46:14;;;;;;;27.52;13.55;;;;;;;;;;4899151;29;20049;-70
2023/09/17 10:48:46;;;;;;;30.75;12.45;;;;;;;;;;4899652;29;20087;-69
2023/09/17 10:51:13;;;;;;;30.17;14.25;;;;;;;;;;4896152;29;20078;-66
2023/09/17 10:53:40;;;;;;;29.70;13.48;;;;;;;;;;4861836;29;20071;-68
2023/09/17 10:56:09;;;;;;;36.00;14.57;;;;;;;;;;4891781;29;20083;-66
2023/09/17 10:58:38;;;;;;;27.58;12.90;;;;;;;;;;4883856;29;20064;-66
2023/09/17 11:01:07;;;;;;;28.58;13.13;;;;;;;;;;4882994;29;20080;-67
2023/09/17 11:03:37;;;;;;;30.42;13.55;;;;;;;;;;4909514;29;20140;-66
2023/09/17 11:06:13;;;;;;;30.48;13.98;;;;;;;;;;4899004;29;20055;-69
2023/09/17 11:08:49;;;;;;;35.40;15.60;;;;;;;;;;4905491;29;20060;-66
2023/09/17 11:11:17;;;;;;;35.10;14.52;;;;;;;;;;4895273;29;20046;-65
2023/09/17 11:13:46;;;;;;;40.35;18.92;;;;;;;;;;4905840;28;20093;-66
2023/09/17 11:16:18;;;;;;;43.10;21.55;;;;;;;;;;4940189;29;20066;-66
2023/09/17 11:18:46;;;;;;;30.15;15.90;;;;;;;;;;4944127;28;20066;-66
2023/09/17 11:21:16;;;;;;;32.72;15.35;;;;;;;;;;4940239;29;20162;-66
2023/09/17 11:23:44;;;;;;;30.27;13.88;;;;;;;;;;4925014;28;20051;-67
2023/09/17 11:26:13;;;;;;;;;;;;;;;;;;4919595;28;21295;-67
2023/09/17 11:28:39;;;;;;;;;;;;;;;;;;4923371;28;19969;-66
2023/09/17 11:31:09;;;;;;;27.48;12.15;;;;;;;;;;4922921;28;19954;-66
2023/09/17 11:33:37;;;;;;;29.83;13.90;;;;;;;;;;4900986;28;20170;-67
2023/09/17 11:36:07;;;;;;;38.53;16.65;;;;;;;;;;4900740;29;20063;-66
2023/09/17 11:38:35;;;;;;;33.35;15.38;;;;;;;;;;4917778;29;20059;-67
2023/09/17 11:41:16;;;;;;;29.98;13.98;;;;;;;;;;4900744;29;20056;-66
2023/09/17 11:43:48;;;;;;;32.15;14.25;;;;;;;;;;4885428;29;20048;-65
2023/09/17 11:46:16;;;;;;;31.40;14.45;;;;;;;;;;4922295;28;20051;-66
2023/09/17 11:48:49;;;;;;;32.63;15.38;;;;;;;;;;4932809;28;20067;-67
2023/09/17 11:51:37;;;;;;;;;;;;;;;;;;;;;
2023/09/17 11:54:08;;;;;;;38.88;16.55;;;;;;;;;;4934872;28;20090;-66
2023/09/17 11:56:45;;;;;;;34.58;17.73;;;;;;;;;;4935102;28;20058;-65
2023/09/17 11:59:15;;;;;;;37.50;17.70;;;;;;;;;;4921420;28;20067;-66
2023/09/17 12:01:44;;;;;;;37.60;16.25;;;;;;;;;;4912809;28;20075;-66
2023/09/17 12:04:11;;;;;;;;;;;;;;;;;;4917759;28;20059;-66
2023/09/17 12:06:47;;;;;;;32.55;14.90;;;;;;;;;;4924934;29;19927;-66
2023/09/17 12:09:21;;;;;;;35.70;15.65;;;;;;;;;;4906250;29;20067;-67
2023/09/17 12:11:53;;;;;;;33.65;15.73;;;;;;;;;;4916884;29;20052;-66
2023/09/17 12:14:20;;;;;;;31.58;15.40;;;;;;;;;;4877719;29;20152;-65
2023/09/17 12:16:48;;;;;;;36.10;16.35;;;;;;;;;;4893380;29;20075;-66
2023/09/17 12:19:16;;;;;;;37.17;16.02;;;;;;;;;;4906960;29;20111;-68
2023/09/17 12:21:44;;;;;;;36.58;16.92;;;;;;;;;;4909112;29;20079;-66
2023/09/17 12:24:23;;;;;;;34.03;16.77;;;;;;;;;;4947781;28;20086;-65
2023/09/17 12:27:19;;;;;;;42.50;18.58;;;;;;;;;;4914252;29;20067;-67
2023/09/17 12:29:53;;;;;;;42.72;18.40;;;;;;;;;;4928111;28;20110;-65
2023/09/17 12:32:24;;;;;;;35.88;17.00;;;;;;;;;;4922370;28;20112;-67
2023/09/17 12:34:53;;;;;;;40.90;18.45;;;;;;;;;;4938157;29;20150;-66
2023/09/17 12:37:23;;;;;;;39.55;17.70;;;;;;;;;;4916047;29;20055;-66
2023/09/17 12:39:52;;;;;;;39.10;19.30;;;;;;;;;;4913631;28;20166;-66
2023/09/17 12:42:19;;;;;;;44.20;19.85;;;;;;;;;;4906792;28;20154;-65
2023/09/17 12:44:46;;;;;;;38.42;18.00;;;;;;;;;;4919808;29;20067;-65
2023/09/17 12:47:13;;;;;;;41.85;18.88;;;;;;;;;;4919883;29;20060;-65
2023/09/17 12:49:42;;;;;;;44.80;19.30;;;;;;;;;;4915004;29;20094;-64
2023/09/17 12:52:09;;;;;;;48.97;21.15;;;;;;;;;;4913844;28;20060;-67
2023/09/17 12:54:36;;;;;;;47.00;20.35;;;;;;;;;;4924267;28;20059;-66
2023/09/17 12:57:07;;;;;;;43.67;19.88;;;;;;;;;;4923007;29;20051;-66
2023/09/17 12:59:37;;;;;;;41.92;18.35;;;;;;;;;;4924269;29;20044;-66
2023/09/17 13:02:06;;;;;;;44.03;17.45;;;;;;;;;;4897100;29;20146;-65
2023/09/17 13:04:33;;;;;;;;;;;;;;;;;;4924986;29;20063;-66
2023/09/17 13:07:03;;;;;;;32.40;14.17;;;;;;;;;;4923957;29;19978;-67
2023/09/17 13:09:31;;;;;;;40.08;16.98;;;;;;;;;;4922976;29;20070;-67
2023/09/17 13:11:58;;;;;;;35.53;15.65;;;;;;;;;;4917410;28;20051;-64
2023/09/17 13:14:30;;;;;;;42.00;16.55;;;;;;;;;;4942129;28;20059;-65
2023/09/17 13:16:57;;;;;;;42.17;17.27;;;;;;;;;;4936062;28;20091;-65
2023/09/17 13:19:24;;;;;;;38.33;16.40;;;;;;;;;;4904972;29;20060;-67
2023/09/17 13:21:51;;;;;;;35.78;15.75;;;;;;;;;;4921105;28;20066;-65
2023/09/17 13:24:21;;;;;;;36.88;15.68;;;;;;;;;;4900577;29;20066;-67
2023/09/17 13:26:48;;;;;;;34.40;16.45;;;;;;;;;;4901105;29;20066;-66
2023/09/17 13:29:15;;;;;;;36.50;15.98;;;;;;;;;;4917425;29;20076;-66
2023/09/17 13:31:47;;;;;;;37.10;15.40;;;;;;;;;;4894465;29;20088;-66
2023/09/17 13:34:13;;;;;;;35.80;15.18;;;;;;;;;;4898888;29;20070;-66
2023/09/17 13:36:43;;;;;;;33.22;15.13;;;;;;;;;;4905536;29;20067;-65
2023/09/17 13:39:13;;;;;;;38.92;15.65;;;;;;;;;;4903253;29;20052;-66
2023/09/17 13:41:40;;;;;;;31.02;14.93;;;;;;;;;;4894384;29;20056;-64
2023/09/17 13:44:07;;;;;;;29.02;14.38;;;;;;;;;;4917372;28;20060;-65
2023/09/17 13:46:33;;;;;;;32.72;14.35;;;;;;;;;;4921757;29;20061;-64
2023/09/17 13:49:02;;;;;;;38.42;16.70;;;;;;;;;;4924520;29;20070;-66
2023/09/17 13:51:29;;;;;;;29.75;15.88;;;;;;;;;;4921151;29;20115;-64
2023/09/17 13:53:55;;;;;;;35.72;15.88;;;;;;;;;;4927580;28;20266;-66
2023/09/17 13:56:22;;;;;;;33.83;13.35;;;;;;;;;;4920251;28;20074;-65
2023/09/17 13:58:49;;;;;;;27.75;13.68;;;;;;;;;;4920361;29;20040;-65
2023/09/17 14:01:16;;;;;;;29.20;12.00;;;;;;;;;;4934696;28;20075;-65
2023/09/17 14:03:42;;;;;;;22.00;10.38;;;;;;;;;;4910126;28;20071;-65
2023/09/17 14:06:10;;;;;;;23.15;10.68;;;;;;;;;;4903758;29;20575;-66
2023/09/17 14:08:37;;;;;;;22.05;9.98;;;;;;;;;;4902774;29;20052;-66
2023/09/17 14:11:04;;;;;;;20.27;10.77;;;;;;;;;;4917485;29;20056;-66
2023/09/17 14:13:33;;;;;;;25.52;11.82;;;;;;;;;;4914161;29;20107;-66
2023/09/17 14:15:59;;;;;;;25.95;12.07;;;;;;;;;;4911799;29;20056;-66
2023/09/17 14:18:26;;;;;;;22.38;10.02;;;;;;;;;;4902110;29;20116;-67
2023/09/17 14:20:53;;;;;;;19.58;9.48;;;;;;;;;;4918037;29;20056;-67
2023/09/17 14:23:21;;;;;;;19.20;9.65;;;;;;;;;;4907763;29;20083;-67
2023/09/17 14:25:48;;;;;;;17.15;8.98;;;;;;;;;;4897471;29;20064;-66
2023/09/17 14:28:14;;;;;;;18.35;9.80;;;;;;;;;;4904057;29;20119;-66
2023/09/17 14:30:41;;;;;;;22.85;9.43;;;;;;;;;;4903081;29;20124;-67
2023/09/17 14:33:11;;;;;;;19.85;9.30;;;;;;;;;;4881304;29;20086;-65
2023/09/17 14:35:37;;;;;;;18.98;9.27;;;;;;;;;;4895100;28;20059;-65
2023/09/17 14:38:05;;;;;;;24.20;9.18;;;;;;;;;;4901291;29;20107;-65
2023/09/17 14:40:33;;;;;;;18.90;9.40;;;;;;;;;;4922449;29;20059;-66
2023/09/17 14:42:59;;;;;;;21.70;9.80;;;;;;;;;;4897923;29;20060;-66